Aviation Digital Data Service (ADDS)

Output produced by TAFs form (1700 UTC 17 October 2017)
found at http://aviationweather.gov/adds/tafs/
 
KSAF 171126Z 1712/1812 01011KT P6SM FEW250 
     FM171900 25008KT P6SM FEW250 
     FM180200 36005KT P6SM SCT250